sensor_id;sensor_type;location;lat;lon;timestamp;pressure;altitude;pressure_sealevel;temperature;humidity
74403;BME280;62837;51.082;13.744;2022-12-15T00:00:17;99225.98;;;-5.02;71.76
74403;BME280;62837;51.082;13.744;2022-12-15T00:03:06;99224.45;;;-5.09;71.45
74403;BME280;62837;51.082;13.744;2022-12-15T00:05:54;99233.70;;;-5.12;71.74
74403;BME280;62837;51.082;13.744;2022-12-15T00:08:43;99232.90;;;-5.15;71.44
74403;BME280;62837;51.082;13.744;2022-12-15T00:11:31;99235.66;;;-5.24;71.60
74403;BME280;62837;51.082;13.744;2022-12-15T00:14:19;99238.89;;;-5.28;71.80
74403;BME280;62837;51.082;13.744;2022-12-15T00:17:07;99244.23;;;-5.35;71.09
74403;BME280;62837;51.082;13.744;2022-12-15T00:19:56;99242.48;;;-5.43;71.40
74403;BME280;62837;51.082;13.744;2022-12-15T00:22:45;99239.70;;;-5.51;71.71
74403;BME280;62837;51.082;13.744;2022-12-15T00:25:33;99236.16;;;-5.54;71.81
74403;BME280;62837;51.082;13.744;2022-12-15T00:28:21;99234.40;;;-5.48;71.76
74403;BME280;62837;51.082;13.744;2022-12-15T00:31:10;99233.89;;;-5.47;71.42
74403;BME280;62837;51.082;13.744;2022-12-15T00:33:58;99234.24;;;-5.57;71.31
74403;BME280;62837;51.082;13.744;2022-12-15T00:36:47;99232.92;;;-5.62;71.91
74403;BME280;62837;51.082;13.744;2022-12-15T00:39:35;99229.13;;;-5.63;72.06
74403;BME280;62837;51.082;13.744;2022-12-15T00:42:06;99240.72;;;-5.65;71.96
74403;BME280;62837;51.082;13.744;2022-12-15T00:44:37;99239.05;;;-5.66;71.74
74403;BME280;62837;51.082;13.744;2022-12-15T00:47:07;99244.41;;;-5.69;71.58
74403;BME280;62837;51.082;13.744;2022-12-15T00:49:38;99248.33;;;-5.77;71.41
74403;BME280;62837;51.082;13.744;2022-12-15T00:52:27;99255.20;;;-5.82;71.46
74403;BME280;62837;51.082;13.744;2022-12-15T00:55:15;99260.84;;;-5.85;71.58
74403;BME280;62837;51.082;13.744;2022-12-15T00:58:03;99258.80;;;-5.98;71.37
74403;BME280;62837;51.082;13.744;2022-12-15T01:00:52;99258.52;;;-6.00;71.62
74403;BME280;62837;51.082;13.744;2022-12-15T01:03:40;99257.95;;;-5.97;71.63
74403;BME280;62837;51.082;13.744;2022-12-15T01:06:29;99261.60;;;-5.99;71.52
74403;BME280;62837;51.082;13.744;2022-12-15T01:09:17;99266.76;;;-5.99;71.86
74403;BME280;62837;51.082;13.744;2022-12-15T01:12:06;99268.45;;;-5.98;71.64
74403;BME280;62837;51.082;13.744;2022-12-15T01:14:54;99267.89;;;-6.01;71.60
74403;BME280;62837;51.082;13.744;2022-12-15T01:17:42;99273.12;;;-6.04;71.59
74403;BME280;62837;51.082;13.744;2022-12-15T01:20:31;99279.77;;;-6.05;71.64
74403;BME280;62837;51.082;13.744;2022-12-15T01:23:03;99282.65;;;-6.05;71.76
74403;BME280;62837;51.082;13.744;2022-12-15T01:25:34;99289.36;;;-6.07;71.52
74403;BME280;62837;51.082;13.744;2022-12-15T01:28:07;99295.73;;;-6.10;71.61
74403;BME280;62837;51.082;13.744;2022-12-15T01:30:39;99301.23;;;-6.11;71.56
74403;BME280;62837;51.082;13.744;2022-12-15T01:33:10;99298.04;;;-6.13;71.89
74403;BME280;62837;51.082;13.744;2022-12-15T01:35:41;99307.33;;;-6.08;71.68
74403;BME280;62837;51.082;13.744;2022-12-15T01:38:12;99309.67;;;-6.04;71.48
74403;BME280;62837;51.082;13.744;2022-12-15T01:40:51;99309.30;;;-6.04;71.95
74403;BME280;62837;51.082;13.744;2022-12-15T01:43:25;99311.28;;;-5.94;72.39
74403;BME280;62837;51.082;13.744;2022-12-15T01:45:59;99318.27;;;-5.84;72.76
74403;BME280;62837;51.082;13.744;2022-12-15T01:48:36;99312.02;;;-5.76;72.46
74403;BME280;62837;51.082;13.744;2022-12-15T01:51:12;99322.05;;;-5.61;71.99
74403;BME280;62837;51.082;13.744;2022-12-15T01:53:49;99326.44;;;-5.55;71.93
74403;BME280;62837;51.082;13.744;2022-12-15T01:56:24;99327.33;;;-5.50;72.08
74403;BME280;62837;51.082;13.744;2022-12-15T01:58:58;99330.61;;;-5.46;72.53
74403;BME280;62837;51.082;13.744;2022-12-15T02:01:31;99337.23;;;-5.39;72.80
74403;BME280;62837;51.082;13.744;2022-12-15T02:04:03;99342.39;;;-5.38;72.99
74403;BME280;62837;51.082;13.744;2022-12-15T02:06:35;99343.25;;;-5.33;73.41
74403;BME280;62837;51.082;13.744;2022-12-15T02:09:05;99343.45;;;-5.29;73.70
74403;BME280;62837;51.082;13.744;2022-12-15T02:11:56;99343.70;;;-5.20;73.69
74403;BME280;62837;51.082;13.744;2022-12-15T02:14:41;99341.66;;;-5.15;73.55
74403;BME280;62837;51.082;13.744;2022-12-15T02:17:23;99343.05;;;-5.10;73.80
74403;BME280;62837;51.082;13.744;2022-12-15T02:29:43;99355.10;;;-4.92;74.13
74403;BME280;62837;51.082;13.744;2022-12-15T02:32:23;99356.85;;;-4.91;74.01
74403;BME280;62837;51.082;13.744;2022-12-15T02:34:59;99353.46;;;-4.88;73.94
74403;BME280;62837;51.082;13.744;2022-12-15T02:37:33;99352.65;;;-4.81;73.87
74403;BME280;62837;51.082;13.744;2022-12-15T02:40:08;99355.77;;;-4.73;73.84
74403;BME280;62837;51.082;13.744;2022-12-15T02:42:44;99357.02;;;-4.67;73.61
74403;BME280;62837;51.082;13.744;2022-12-15T02:45:17;99351.17;;;-4.68;73.44
74403;BME280;62837;51.082;13.744;2022-12-15T02:47:57;99353.36;;;-4.71;73.80
74403;BME280;62837;51.082;13.744;2022-12-15T02:50:40;99351.04;;;-4.69;74.55
74403;BME280;62837;51.082;13.744;2022-12-15T02:53:25;99354.09;;;-4.66;74.04
74403;BME280;62837;51.082;13.744;2022-12-15T02:55:59;99354.66;;;-4.66;73.93
74403;BME280;62837;51.082;13.744;2022-12-15T02:58:38;99356.45;;;-4.68;73.63
74403;BME280;62837;51.082;13.744;2022-12-15T03:01:19;99359.77;;;-4.70;73.70
74403;BME280;62837;51.082;13.744;2022-12-15T03:03:53;99364.19;;;-4.73;73.48
74403;BME280;62837;51.082;13.744;2022-12-15T03:06:26;99371.33;;;-4.76;73.56
74403;BME280;62837;51.082;13.744;2022-12-15T03:08:58;99381.95;;;-4.84;72.56
74403;BME280;62837;51.082;13.744;2022-12-15T03:11:29;99383.54;;;-4.94;72.61
74403;BME280;62837;51.082;13.744;2022-12-15T03:14:00;99385.57;;;-4.99;72.80
74403;BME280;62837;51.082;13.744;2022-12-15T03:16:30;99386.80;;;-5.04;72.78
74403;BME280;62837;51.082;13.744;2022-12-15T03:19:01;99386.28;;;-5.09;73.04
74403;BME280;62837;51.082;13.744;2022-12-15T03:21:32;99393.03;;;-5.12;73.30
74403;BME280;62837;51.082;13.744;2022-12-15T03:24:03;99399.23;;;-5.11;73.58
74403;BME280;62837;51.082;13.744;2022-12-15T03:26:33;99402.14;;;-5.07;73.67
74403;BME280;62837;51.082;13.744;2022-12-15T03:29:04;99406.40;;;-5.01;73.58
74403;BME280;62837;51.082;13.744;2022-12-15T03:31:35;99409.02;;;-4.96;73.67
74403;BME280;62837;51.082;13.744;2022-12-15T03:34:06;99413.38;;;-4.92;73.51
74403;BME280;62837;51.082;13.744;2022-12-15T03:36:37;99417.11;;;-4.91;73.31
74403;BME280;62837;51.082;13.744;2022-12-15T03:39:08;99416.60;;;-4.89;73.74
74403;BME280;62837;51.082;13.744;2022-12-15T03:41:38;99416.83;;;-4.88;73.77
74403;BME280;62837;51.082;13.744;2022-12-15T03:44:10;99421.77;;;-4.88;73.82
74403;BME280;62837;51.082;13.744;2022-12-15T03:46:40;99429.02;;;-4.87;73.84
74403;BME280;62837;51.082;13.744;2022-12-15T03:49:11;99429.52;;;-4.87;74.02
74403;BME280;62837;51.082;13.744;2022-12-15T03:51:42;99434.45;;;-4.87;74.07
74403;BME280;62837;51.082;13.744;2022-12-15T03:54:13;99434.48;;;-4.90;74.06
74403;BME280;62837;51.082;13.744;2022-12-15T03:56:44;99434.17;;;-4.94;74.38
74403;BME280;62837;51.082;13.744;2022-12-15T03:59:15;99439.60;;;-4.89;75.56
74403;BME280;62837;51.082;13.744;2022-12-15T04:01:47;99440.36;;;-4.78;75.73
74403;BME280;62837;51.082;13.744;2022-12-15T04:04:18;99438.46;;;-4.66;75.57
74403;BME280;62837;51.082;13.744;2022-12-15T04:06:49;99436.77;;;-4.55;75.77
74403;BME280;62837;51.082;13.744;2022-12-15T04:09:20;99442.81;;;-4.47;76.18
74403;BME280;62837;51.082;13.744;2022-12-15T04:11:50;99448.62;;;-4.38;75.83
74403;BME280;62837;51.082;13.744;2022-12-15T04:14:21;99445.64;;;-4.36;75.78
74403;BME280;62837;51.082;13.744;2022-12-15T04:16:52;99459.81;;;-4.32;75.16
74403;BME280;62837;51.082;13.744;2022-12-15T04:19:23;99463.55;;;-4.37;74.58
74403;BME280;62837;51.082;13.744;2022-12-15T04:22:11;99475.58;;;-4.50;74.43
74403;BME280;62837;51.082;13.744;2022-12-15T04:24:46;99479.12;;;-4.57;74.32
74403;BME280;62837;51.082;13.744;2022-12-15T04:27:35;99478.43;;;-4.64;74.45
74403;BME280;62837;51.082;13.744;2022-12-15T04:30:30;99486.09;;;-4.70;74.37
74403;BME280;62837;51.082;13.744;2022-12-15T04:33:19;99488.38;;;-4.79;74.61
74403;BME280;62837;51.082;13.744;2022-12-15T04:36:11;99491.56;;;-4.80;74.31
74403;BME280;62837;51.082;13.744;2022-12-15T04:38:58;99499.99;;;-4.84;73.90
74403;BME280;62837;51.082;13.744;2022-12-15T04:41:47;99504.98;;;-4.89;74.18
74403;BME280;62837;51.082;13.744;2022-12-15T04:44:36;99507.30;;;-4.96;74.47
74403;BME280;62837;51.082;13.744;2022-12-15T04:47:25;99507.26;;;-4.99;74.41
74403;BME280;62837;51.082;13.744;2022-12-15T04:50:13;99511.86;;;-5.00;74.14
74403;BME280;62837;51.082;13.744;2022-12-15T04:53:09;99525.11;;;-5.06;74.47
74403;BME280;62837;51.082;13.744;2022-12-15T04:55:59;99528.41;;;-5.13;74.51
74403;BME280;62837;51.082;13.744;2022-12-15T04:58:48;99527.96;;;-5.20;74.53
74403;BME280;62837;51.082;13.744;2022-12-15T05:01:36;99527.27;;;-5.25;74.72
74403;BME280;62837;51.082;13.744;2022-12-15T05:04:24;99526.21;;;-5.28;74.40
74403;BME280;62837;51.082;13.744;2022-12-15T05:07:13;99527.73;;;-5.33;74.02
74403;BME280;62837;51.082;13.744;2022-12-15T05:10:02;99529.59;;;-5.40;74.20
74403;BME280;62837;51.082;13.744;2022-12-15T05:12:51;99533.41;;;-5.40;73.67
74403;BME280;62837;51.082;13.744;2022-12-15T05:15:39;99533.65;;;-5.41;73.61
74403;BME280;62837;51.082;13.744;2022-12-15T05:18:27;99535.80;;;-5.38;73.59
74403;BME280;62837;51.082;13.744;2022-12-15T05:21:15;99546.27;;;-5.37;73.47
74403;BME280;62837;51.082;13.744;2022-12-15T05:24:04;99550.83;;;-5.39;73.48
74403;BME280;62837;51.082;13.744;2022-12-15T05:26:53;99556.65;;;-5.40;73.28
74403;BME280;62837;51.082;13.744;2022-12-15T05:29:41;99560.77;;;-5.45;72.85
74403;BME280;62837;51.082;13.744;2022-12-15T05:32:32;99567.08;;;-5.53;72.87
74403;BME280;62837;51.082;13.744;2022-12-15T05:35:03;99562.35;;;-5.59;73.30
74403;BME280;62837;51.082;13.744;2022-12-15T05:37:34;99566.57;;;-5.66;72.95
74403;BME280;62837;51.082;13.744;2022-12-15T05:40:06;99569.59;;;-5.75;72.78
74403;BME280;62837;51.082;13.744;2022-12-15T05:42:37;99572.27;;;-5.77;73.14
74403;BME280;62837;51.082;13.744;2022-12-15T05:45:09;99571.17;;;-5.72;73.00
74403;BME280;62837;51.082;13.744;2022-12-15T05:47:40;99572.46;;;-5.66;73.02
74403;BME280;62837;51.082;13.744;2022-12-15T05:50:11;99574.95;;;-5.62;73.41
74403;BME280;62837;51.082;13.744;2022-12-15T05:52:41;99580.55;;;-5.58;73.75
74403;BME280;62837;51.082;13.744;2022-12-15T05:55:18;99586.29;;;-5.56;73.46
74403;BME280;62837;51.082;13.744;2022-12-15T05:57:52;99592.99;;;-5.56;73.40
74403;BME280;62837;51.082;13.744;2022-12-15T06:00:23;99599.67;;;-5.58;73.52
74403;BME280;62837;51.082;13.744;2022-12-15T06:02:54;99599.77;;;-5.61;73.86
74403;BME280;62837;51.082;13.744;2022-12-15T06:05:25;99602.83;;;-5.61;73.60
74403;BME280;62837;51.082;13.744;2022-12-15T06:07:56;99607.91;;;-5.62;73.88
74403;BME280;62837;51.082;13.744;2022-12-15T06:10:29;99611.02;;;-5.61;74.38
74403;BME280;62837;51.082;13.744;2022-12-15T06:12:59;99613.70;;;-5.59;74.28
74403;BME280;62837;51.082;13.744;2022-12-15T06:15:30;99613.23;;;-5.58;74.14
74403;BME280;62837;51.082;13.744;2022-12-15T06:18:01;99615.70;;;-5.58;74.72
74403;BME280;62837;51.082;13.744;2022-12-15T06:20:31;99622.24;;;-5.59;74.02
74403;BME280;62837;51.082;13.744;2022-12-15T06:23:02;99624.45;;;-5.65;73.48
74403;BME280;62837;51.082;13.744;2022-12-15T06:25:33;99625.04;;;-5.67;73.21
74403;BME280;62837;51.082;13.744;2022-12-15T06:28:04;99628.65;;;-5.66;73.08
74403;BME280;62837;51.082;13.744;2022-12-15T06:30:35;99632.47;;;-5.66;72.78
74403;BME280;62837;51.082;13.744;2022-12-15T06:33:06;99632.58;;;-5.69;72.75
74403;BME280;62837;51.082;13.744;2022-12-15T06:35:37;99635.21;;;-5.73;72.89
74403;BME280;62837;51.082;13.744;2022-12-15T06:38:08;99638.07;;;-5.78;72.62
74403;BME280;62837;51.082;13.744;2022-12-15T06:40:39;99644.93;;;-5.85;72.77
74403;BME280;62837;51.082;13.744;2022-12-15T06:43:10;99656.34;;;-5.87;72.83
74403;BME280;62837;51.082;13.744;2022-12-15T06:45:40;99657.59;;;-5.91;73.03
74403;BME280;62837;51.082;13.744;2022-12-15T06:48:18;99660.31;;;-5.92;73.00
74403;BME280;62837;51.082;13.744;2022-12-15T06:50:50;99668.30;;;-5.89;73.72
74403;BME280;62837;51.082;13.744;2022-12-15T06:53:22;99672.20;;;-5.84;74.10
74403;BME280;62837;51.082;13.744;2022-12-15T06:55:54;99669.56;;;-5.23;85.63
74403;BME280;62837;51.082;13.744;2022-12-15T06:58:28;99666.44;;;-3.92;89.43
74403;BME280;62837;51.082;13.744;2022-12-15T07:00:59;99672.66;;;-3.53;79.46
74403;BME280;62837;51.082;13.744;2022-12-15T07:03:35;99673.21;;;-3.69;74.43
74403;BME280;62837;51.082;13.744;2022-12-15T07:06:10;99672.62;;;-3.94;73.17
74403;BME280;62837;51.082;13.744;2022-12-15T07:08:41;99671.53;;;-4.18;72.06
74403;BME280;62837;51.082;13.744;2022-12-15T07:11:13;99674.86;;;-4.41;71.51
74403;BME280;62837;51.082;13.744;2022-12-15T07:13:47;99682.10;;;-4.61;71.13
74403;BME280;62837;51.082;13.744;2022-12-15T07:16:18;99687.69;;;-4.83;70.60
74403;BME280;62837;51.082;13.744;2022-12-15T07:18:50;99694.47;;;-5.04;70.85
74403;BME280;62837;51.082;13.744;2022-12-15T07:21:21;99693.89;;;-5.18;71.19
74403;BME280;62837;51.082;13.744;2022-12-15T07:23:51;99696.95;;;-5.32;71.04
74403;BME280;62837;51.082;13.744;2022-12-15T07:26:26;99687.48;;;-5.58;71.19
74403;BME280;62837;51.082;13.744;2022-12-15T07:28:56;99705.90;;;-5.67;71.44
74403;BME280;62837;51.082;13.744;2022-12-15T07:31:29;99704.91;;;-5.71;71.72
74403;BME280;62837;51.082;13.744;2022-12-15T07:34:00;99706.99;;;-5.70;71.32
74403;BME280;62837;51.082;13.744;2022-12-15T07:36:31;99712.73;;;-5.74;71.37
74403;BME280;62837;51.082;13.744;2022-12-15T07:39:02;99716.89;;;-5.75;71.46
74403;BME280;62837;51.082;13.744;2022-12-15T07:41:34;99719.20;;;-5.80;71.28
74403;BME280;62837;51.082;13.744;2022-12-15T07:44:04;99722.08;;;-5.87;71.50
74403;BME280;62837;51.082;13.744;2022-12-15T07:46:36;99724.30;;;-5.90;71.94
74403;BME280;62837;51.082;13.744;2022-12-15T07:49:07;99728.77;;;-5.87;71.86
74403;BME280;62837;51.082;13.744;2022-12-15T07:51:39;99735.16;;;-5.83;72.29
74403;BME280;62837;51.082;13.744;2022-12-15T07:54:10;99740.09;;;-5.73;72.75
74403;BME280;62837;51.082;13.744;2022-12-15T07:56:42;99744.27;;;-5.63;72.87
74403;BME280;62837;51.082;13.744;2022-12-15T07:59:18;99749.03;;;-5.44;72.95
74403;BME280;62837;51.082;13.744;2022-12-15T08:01:49;99741.85;;;-5.23;73.27
74403;BME280;62837;51.082;13.744;2022-12-15T08:04:21;99743.09;;;-4.95;73.06
74403;BME280;62837;51.082;13.744;2022-12-15T08:06:53;99732.77;;;-4.79;72.64
74403;BME280;62837;51.082;13.744;2022-12-15T08:09:24;99729.95;;;-4.76;72.50
74403;BME280;62837;51.082;13.744;2022-12-15T08:11:55;99729.70;;;-4.69;73.19
74403;BME280;62837;51.082;13.744;2022-12-15T08:14:26;99729.74;;;-4.56;73.12
74403;BME280;62837;51.082;13.744;2022-12-15T08:16:57;99735.27;;;-4.45;73.05
74403;BME280;62837;51.082;13.744;2022-12-15T08:19:28;99736.76;;;-4.35;73.35
74403;BME280;62837;51.082;13.744;2022-12-15T08:22:00;99741.48;;;-4.25;74.13
74403;BME280;62837;51.082;13.744;2022-12-15T08:24:30;99747.38;;;-4.11;73.08
74403;BME280;62837;51.082;13.744;2022-12-15T08:27:01;99742.39;;;-3.87;72.26
74403;BME280;62837;51.082;13.744;2022-12-15T08:29:32;99746.98;;;-3.62;71.98
74403;BME280;62837;51.082;13.744;2022-12-15T08:32:21;99748.63;;;-3.37;71.25
74403;BME280;62837;51.082;13.744;2022-12-15T08:34:53;99759.39;;;-3.18;71.51
74403;BME280;62837;51.082;13.744;2022-12-15T08:37:23;99766.27;;;-3.16;71.15
74403;BME280;62837;51.082;13.744;2022-12-15T08:39:55;99768.78;;;-3.14;70.60
74403;BME280;62837;51.082;13.744;2022-12-15T08:42:26;99765.52;;;-3.15;70.76
74403;BME280;62837;51.082;13.744;2022-12-15T08:44:57;99769.70;;;-3.17;70.35
74403;BME280;62837;51.082;13.744;2022-12-15T08:47:27;99775.86;;;-3.21;69.83
74403;BME280;62837;51.082;13.744;2022-12-15T08:49:59;99775.12;;;-3.18;69.42
74403;BME280;62837;51.082;13.744;2022-12-15T08:52:30;99773.77;;;-3.16;69.18
74403;BME280;62837;51.082;13.744;2022-12-15T08:55:00;99770.74;;;-3.01;69.39
74403;BME280;62837;51.082;13.744;2022-12-15T08:57:31;99774.05;;;-2.73;69.75
74403;BME280;62837;51.082;13.744;2022-12-15T09:00:02;99770.90;;;-2.43;68.88
74403;BME280;62837;51.082;13.744;2022-12-15T09:02:34;99766.36;;;-2.17;68.49
74403;BME280;62837;51.082;13.744;2022-12-15T09:05:05;99761.48;;;-1.91;67.79
74403;BME280;62837;51.082;13.744;2022-12-15T09:07:36;99757.54;;;-1.76;66.43
74403;BME280;62837;51.082;13.744;2022-12-15T09:10:08;99761.41;;;-1.63;67.24
74403;BME280;62837;51.082;13.744;2022-12-15T09:12:39;99763.49;;;-1.46;66.74
74403;BME280;62837;51.082;13.744;2022-12-15T09:15:11;99765.52;;;-1.34;66.03
74403;BME280;62837;51.082;13.744;2022-12-15T09:17:41;99767.16;;;-1.21;66.08
74403;BME280;62837;51.082;13.744;2022-12-15T09:20:12;99774.18;;;-1.06;65.99
74403;BME280;62837;51.082;13.744;2022-12-15T09:22:46;99775.07;;;-0.96;65.03
74403;BME280;62837;51.082;13.744;2022-12-15T09:25:18;99774.73;;;-0.90;64.75
74403;BME280;62837;51.082;13.744;2022-12-15T09:27:49;99778.06;;;-0.98;64.13
74403;BME280;62837;51.082;13.744;2022-12-15T09:30:20;99781.73;;;-1.01;64.62
74403;BME280;62837;51.082;13.744;2022-12-15T09:32:51;99779.81;;;-1.01;64.07
74403;BME280;62837;51.082;13.744;2022-12-15T09:35:21;99783.52;;;-1.01;64.40
74403;BME280;62837;51.082;13.744;2022-12-15T09:37:52;99775.27;;;-1.04;64.18
74403;BME280;62837;51.082;13.744;2022-12-15T09:40:23;99776.42;;;-1.07;64.07
74403;BME280;62837;51.082;13.744;2022-12-15T09:42:55;99778.14;;;-1.12;64.17
74403;BME280;62837;51.082;13.744;2022-12-15T09:45:50;99779.77;;;-1.01;64.11
74403;BME280;62837;51.082;13.744;2022-12-15T09:48:23;99778.33;;;-0.92;63.96
74403;BME280;62837;51.082;13.744;2022-12-15T09:50:59;99774.27;;;-0.89;63.71
74403;BME280;62837;51.082;13.744;2022-12-15T09:53:32;99777.67;;;-0.99;63.64
74403;BME280;62837;51.082;13.744;2022-12-15T09:56:29;99780.27;;;-1.07;63.76
74403;BME280;62837;51.082;13.744;2022-12-15T09:59:08;99791.32;;;-1.00;63.80
74403;BME280;62837;51.082;13.744;2022-12-15T10:01:50;99791.42;;;-0.89;63.55
74403;BME280;62837;51.082;13.744;2022-12-15T10:04:23;99792.02;;;-0.92;62.55
74403;BME280;62837;51.082;13.744;2022-12-15T10:07:02;99793.60;;;-1.01;62.59
74403;BME280;62837;51.082;13.744;2022-12-15T10:09:37;99791.84;;;-0.96;63.36
74403;BME280;62837;51.082;13.744;2022-12-15T10:12:12;99787.41;;;-0.69;63.26
74403;BME280;62837;51.082;13.744;2022-12-15T10:14:48;99786.47;;;-0.43;62.60
74403;BME280;62837;51.082;13.744;2022-12-15T10:17:23;99788.52;;;-0.21;62.45
74403;BME280;62837;51.082;13.744;2022-12-15T10:20:01;99792.02;;;-0.00;62.09
74403;BME280;62837;51.082;13.744;2022-12-15T10:22:36;99801.11;;;0.23;61.97
74403;BME280;62837;51.082;13.744;2022-12-15T10:25:16;99797.30;;;0.42;61.38
74403;BME280;62837;51.082;13.744;2022-12-15T10:28:09;99801.79;;;0.58;61.26
74403;BME280;62837;51.082;13.744;2022-12-15T10:30:52;99804.27;;;0.62;60.84
74403;BME280;62837;51.082;13.744;2022-12-15T10:33:33;99797.02;;;0.66;60.83
74403;BME280;62837;51.082;13.744;2022-12-15T10:36:10;99797.04;;;0.64;60.00
74403;BME280;62837;51.082;13.744;2022-12-15T10:38:42;99803.45;;;0.61;59.67
74403;BME280;62837;51.082;13.744;2022-12-15T10:41:20;99805.52;;;0.55;59.57
74403;BME280;62837;51.082;13.744;2022-12-15T10:43:53;99807.06;;;0.46;60.10
74403;BME280;62837;51.082;13.744;2022-12-15T10:46:26;99809.70;;;0.44;60.49
74403;BME280;62837;51.082;13.744;2022-12-15T10:48:58;99809.73;;;0.46;60.79
74403;BME280;62837;51.082;13.744;2022-12-15T10:51:30;99812.60;;;0.53;60.87
74403;BME280;62837;51.082;13.744;2022-12-15T10:54:10;99812.35;;;0.57;60.37
74403;BME280;62837;51.082;13.744;2022-12-15T10:56:49;99812.94;;;0.58;60.17
74403;BME280;62837;51.082;13.744;2022-12-15T10:59:28;99811.31;;;0.61;60.25
74403;BME280;62837;51.082;13.744;2022-12-15T11:02:04;99809.61;;;0.64;59.50
74403;BME280;62837;51.082;13.744;2022-12-15T11:04:56;99801.95;;;0.58;59.63
74403;BME280;62837;51.082;13.744;2022-12-15T11:07:36;99810.18;;;0.65;59.38
74403;BME280;62837;51.082;13.744;2022-12-15T11:10:20;99807.35;;;0.65;59.69
74403;BME280;62837;51.082;13.744;2022-12-15T11:13:01;99813.72;;;0.67;59.28
74403;BME280;62837;51.082;13.744;2022-12-15T11:15:44;99810.92;;;0.70;59.27
74403;BME280;62837;51.082;13.744;2022-12-15T11:18:28;99804.22;;;0.76;59.16
74403;BME280;62837;51.082;13.744;2022-12-15T11:21:06;99807.59;;;0.79;58.85
74403;BME280;62837;51.082;13.744;2022-12-15T11:23:50;99808.13;;;0.79;58.99
74403;BME280;62837;51.082;13.744;2022-12-15T11:26:45;99803.26;;;0.83;59.07
74403;BME280;62837;51.082;13.744;2022-12-15T11:29:35;99802.17;;;0.82;58.75
74403;BME280;62837;51.082;13.744;2022-12-15T11:32:11;99802.58;;;0.86;59.97
74403;BME280;62837;51.082;13.744;2022-12-15T11:34:45;99799.13;;;0.91;59.00
74403;BME280;62837;51.082;13.744;2022-12-15T11:37:38;99794.67;;;0.89;58.82
74403;BME280;62837;51.082;13.744;2022-12-15T11:40:27;99798.08;;;0.92;59.39
74403;BME280;62837;51.082;13.744;2022-12-15T11:43:15;99797.36;;;0.95;59.70
74403;BME280;62837;51.082;13.744;2022-12-15T11:46:02;99794.69;;;0.95;59.19
74403;BME280;62837;51.082;13.744;2022-12-15T11:48:44;99793.75;;;0.89;58.70
74403;BME280;62837;51.082;13.744;2022-12-15T11:51:24;99788.90;;;0.75;59.71
74403;BME280;62837;51.082;13.744;2022-12-15T11:54:09;99803.30;;;0.78;59.61
74403;BME280;62837;51.082;13.744;2022-12-15T11:56:47;99803.63;;;0.81;60.25
74403;BME280;62837;51.082;13.744;2022-12-15T12:02:50;99794.36;;;0.74;59.36
74403;BME280;62837;51.082;13.744;2022-12-15T12:05:35;99794.70;;;0.73;59.75
74403;BME280;62837;51.082;13.744;2022-12-15T12:08:18;99795.82;;;0.72;59.67
74403;BME280;62837;51.082;13.744;2022-12-15T12:10:58;99794.06;;;0.72;59.61
74403;BME280;62837;51.082;13.744;2022-12-15T12:13:37;99793.33;;;0.70;59.99
74403;BME280;62837;51.082;13.744;2022-12-15T12:16:19;99789.03;;;0.70;60.32
74403;BME280;62837;51.082;13.744;2022-12-15T12:18:58;99785.20;;;0.70;60.54
74403;BME280;62837;51.082;13.744;2022-12-15T12:21:35;99783.71;;;0.69;60.17
74403;BME280;62837;51.082;13.744;2022-12-15T12:24:12;99779.27;;;0.58;60.08
74403;BME280;62837;51.082;13.744;2022-12-15T12:26:48;99773.98;;;0.44;61.25
74403;BME280;62837;51.082;13.744;2022-12-15T12:29:27;99769.70;;;0.33;61.51
74403;BME280;62837;51.082;13.744;2022-12-15T12:32:04;99773.58;;;0.23;62.32
74403;BME280;62837;51.082;13.744;2022-12-15T12:34:46;99774.32;;;0.15;62.22
74403;BME280;62837;51.082;13.744;2022-12-15T12:37:24;99776.55;;;0.07;62.49
74403;BME280;62837;51.082;13.744;2022-12-15T12:40:01;99777.00;;;0.02;61.49
74403;BME280;62837;51.082;13.744;2022-12-15T12:42:36;99774.30;;;-0.01;61.70
74403;BME280;62837;51.082;13.744;2022-12-15T12:45:12;99776.16;;;-0.07;61.50
74403;BME280;62837;51.082;13.744;2022-12-15T12:47:47;99772.08;;;-0.15;60.90
74403;BME280;62837;51.082;13.744;2022-12-15T12:50:21;99774.39;;;-0.24;62.42
74403;BME280;62837;51.082;13.744;2022-12-15T12:52:55;99781.89;;;-0.29;63.00
74403;BME280;62837;51.082;13.744;2022-12-15T12:55:38;99784.34;;;-0.34;63.35
74403;BME280;62837;51.082;13.744;2022-12-15T12:58:33;99784.73;;;-0.40;63.83
74403;BME280;62837;51.082;13.744;2022-12-15T13:01:18;99782.46;;;-0.47;63.37
74403;BME280;62837;51.082;13.744;2022-12-15T13:04:05;99785.73;;;-0.48;62.27
74403;BME280;62837;51.082;13.744;2022-12-15T13:07:01;99788.02;;;-0.48;64.13
74403;BME280;62837;51.082;13.744;2022-12-15T13:09:40;99791.19;;;-0.43;64.79
74403;BME280;62837;51.082;13.744;2022-12-15T13:12:33;99785.52;;;-0.38;64.33
74403;BME280;62837;51.082;13.744;2022-12-15T13:15:32;99779.44;;;-0.35;64.93
74403;BME280;62837;51.082;13.744;2022-12-15T13:18:10;99779.77;;;-0.32;64.49
74403;BME280;62837;51.082;13.744;2022-12-15T13:20:43;99776.98;;;-0.31;64.16
74403;BME280;62837;51.082;13.744;2022-12-15T13:23:34;99776.11;;;-0.33;64.41
74403;BME280;62837;51.082;13.744;2022-12-15T13:26:18;99771.63;;;-0.31;64.86
74403;BME280;62837;51.082;13.744;2022-12-15T13:28:53;99765.27;;;-0.34;64.81
74403;BME280;62837;51.082;13.744;2022-12-15T13:31:33;99778.98;;;-0.33;63.73
74403;BME280;62837;51.082;13.744;2022-12-15T13:34:16;99778.09;;;-0.39;63.57
74403;BME280;62837;51.082;13.744;2022-12-15T13:36:50;99773.33;;;-0.47;63.38
74403;BME280;62837;51.082;13.744;2022-12-15T13:42:37;99773.47;;;-0.52;65.25
74403;BME280;62837;51.082;13.744;2022-12-15T13:45:48;99782.04;;;-0.51;65.82
74403;BME280;62837;51.082;13.744;2022-12-15T13:48:28;99789.48;;;-0.51;66.19
74403;BME280;62837;51.082;13.744;2022-12-15T13:51:05;99792.30;;;-0.48;65.80
74403;BME280;62837;51.082;13.744;2022-12-15T13:53:54;99787.58;;;-0.45;65.48
74403;BME280;62837;51.082;13.744;2022-12-15T13:56:59;99791.26;;;-0.38;66.65
74403;BME280;62837;51.082;13.744;2022-12-15T13:59:43;99794.52;;;-0.34;66.51
74403;BME280;62837;51.082;13.744;2022-12-15T14:02:26;99793.80;;;-0.34;65.42